sensor_id;sensor_type;location;lat;lon;timestamp;pressure;altitude;pressure_sealevel;temperature
10598;BMP180;5346;48.766;8.674;2023-10-09T00:02:24;94845.00;;;18.10
10598;BMP180;5346;48.766;8.674;2023-10-09T00:04:52;94843.00;;;18.00
10598;BMP180;5346;48.766;8.674;2023-10-09T00:07:26;94832.00;;;17.80
10598;BMP180;5346;48.766;8.674;2023-10-09T00:10:02;94832.00;;;17.80
10598;BMP180;5346;48.766;8.674;2023-10-09T00:12:46;94837.00;;;17.70
10598;BMP180;5346;48.766;8.674;2023-10-09T00:15:23;94834.00;;;17.90
10598;BMP180;5346;48.766;8.674;2023-10-09T00:17:55;94834.00;;;18.10
10598;BMP180;5346;48.766;8.674;2023-10-09T00:20:36;94826.00;;;17.90
10598;BMP180;5346;48.766;8.674;2023-10-09T00:23:10;94826.00;;;17.80
10598;BMP180;5346;48.766;8.674;2023-10-09T00:25:50;94825.00;;;17.70
10598;BMP180;5346;48.766;8.674;2023-10-09T00:28:43;94819.00;;;17.70
10598;BMP180;5346;48.766;8.674;2023-10-09T00:31:21;94818.00;;;17.80
10598;BMP180;5346;48.766;8.674;2023-10-09T00:34:05;94822.00;;;18.00
10598;BMP180;5346;48.766;8.674;2023-10-09T00:36:41;94819.00;;;18.00
10598;BMP180;5346;48.766;8.674;2023-10-09T00:39:20;94815.00;;;18.10
10598;BMP180;5346;48.766;8.674;2023-10-09T00:42:17;94811.00;;;18.20
10598;BMP180;5346;48.766;8.674;2023-10-09T00:44:55;94815.00;;;18.00
10598;BMP180;5346;48.766;8.674;2023-10-09T00:47:33;94816.00;;;17.90
10598;BMP180;5346;48.766;8.674;2023-10-09T00:50:09;94816.00;;;17.60
10598;BMP180;5346;48.766;8.674;2023-10-09T00:52:52;94811.00;;;17.80
10598;BMP180;5346;48.766;8.674;2023-10-09T00:55:28;94809.00;;;17.70
10598;BMP180;5346;48.766;8.674;2023-10-09T00:58:12;94807.00;;;17.70
10598;BMP180;5346;48.766;8.674;2023-10-09T01:00:49;94805.00;;;17.80
10598;BMP180;5346;48.766;8.674;2023-10-09T01:03:32;94807.00;;;17.90
10598;BMP180;5346;48.766;8.674;2023-10-09T01:06:02;94806.00;;;17.90
10598;BMP180;5346;48.766;8.674;2023-10-09T01:08:43;94793.00;;;17.80
10598;BMP180;5346;48.766;8.674;2023-10-09T01:11:21;94794.00;;;18.00
10598;BMP180;5346;48.766;8.674;2023-10-09T01:13:57;94788.00;;;17.80
10598;BMP180;5346;48.766;8.674;2023-10-09T01:16:34;94787.00;;;17.70
10598;BMP180;5346;48.766;8.674;2023-10-09T01:19:09;94789.00;;;17.90
10598;BMP180;5346;48.766;8.674;2023-10-09T01:21:58;94794.00;;;17.70
10598;BMP180;5346;48.766;8.674;2023-10-09T01:24:39;94785.00;;;17.70
10598;BMP180;5346;48.766;8.674;2023-10-09T01:27:14;94780.00;;;17.80
10598;BMP180;5346;48.766;8.674;2023-10-09T01:29:49;94781.00;;;18.00
10598;BMP180;5346;48.766;8.674;2023-10-09T01:32:26;94778.00;;;17.90
10598;BMP180;5346;48.766;8.674;2023-10-09T01:35:01;94772.00;;;18.00
10598;BMP180;5346;48.766;8.674;2023-10-09T01:37:29;94772.00;;;17.70
10598;BMP180;5346;48.766;8.674;2023-10-09T01:40:04;94780.00;;;17.60
10598;BMP180;5346;48.766;8.674;2023-10-09T01:42:55;94771.00;;;17.60
10598;BMP180;5346;48.766;8.674;2023-10-09T01:45:30;94776.00;;;17.70
10598;BMP180;5346;48.766;8.674;2023-10-09T01:48:10;94777.00;;;17.90
10598;BMP180;5346;48.766;8.674;2023-10-09T01:50:46;94774.00;;;18.00
10598;BMP180;5346;48.766;8.674;2023-10-09T01:53:23;94771.00;;;17.90
10598;BMP180;5346;48.766;8.674;2023-10-09T01:56:11;94769.00;;;17.90
10598;BMP180;5346;48.766;8.674;2023-10-09T01:58:52;94765.00;;;17.90
10598;BMP180;5346;48.766;8.674;2023-10-09T02:01:31;94762.00;;;17.90
10598;BMP180;5346;48.766;8.674;2023-10-09T02:04:06;94761.00;;;17.90
10598;BMP180;5346;48.766;8.674;2023-10-09T02:06:50;94759.00;;;17.90
10598;BMP180;5346;48.766;8.674;2023-10-09T02:09:28;94757.00;;;18.00
10598;BMP180;5346;48.766;8.674;2023-10-09T02:11:59;94760.00;;;18.00
10598;BMP180;5346;48.766;8.674;2023-10-09T02:14:35;94756.00;;;18.10
10598;BMP180;5346;48.766;8.674;2023-10-09T02:17:15;94751.00;;;18.10
10598;BMP180;5346;48.766;8.674;2023-10-09T02:19:53;94749.00;;;18.20
10598;BMP180;5346;48.766;8.674;2023-10-09T02:22:28;94745.00;;;18.10
10598;BMP180;5346;48.766;8.674;2023-10-09T02:25:02;94744.00;;;18.10
10598;BMP180;5346;48.766;8.674;2023-10-09T02:27:39;94748.00;;;18.10
10598;BMP180;5346;48.766;8.674;2023-10-09T02:30:27;94753.00;;;18.10
10598;BMP180;5346;48.766;8.674;2023-10-09T02:33:02;94753.00;;;18.00
10598;BMP180;5346;48.766;8.674;2023-10-09T02:35:43;94751.00;;;17.90
10598;BMP180;5346;48.766;8.674;2023-10-09T02:38:20;94756.00;;;18.00
10598;BMP180;5346;48.766;8.674;2023-10-09T02:40:56;94745.00;;;18.10
10598;BMP180;5346;48.766;8.674;2023-10-09T02:43:37;94741.00;;;18.10
10598;BMP180;5346;48.766;8.674;2023-10-09T02:46:15;94746.00;;;18.20
10598;BMP180;5346;48.766;8.674;2023-10-09T02:48:56;94741.00;;;18.40
10598;BMP180;5346;48.766;8.674;2023-10-09T02:51:28;94741.00;;;18.40
10598;BMP180;5346;48.766;8.674;2023-10-09T02:54:04;94745.00;;;18.30
10598;BMP180;5346;48.766;8.674;2023-10-09T02:56:52;94731.00;;;18.50
10598;BMP180;5346;48.766;8.674;2023-10-09T02:59:50;94736.00;;;18.50
10598;BMP180;5346;48.766;8.674;2023-10-09T03:02:33;94736.00;;;18.40
10598;BMP180;5346;48.766;8.674;2023-10-09T03:05:10;94727.00;;;18.60
10598;BMP180;5346;48.766;8.674;2023-10-09T03:07:40;94738.00;;;18.60
10598;BMP180;5346;48.766;8.674;2023-10-09T03:10:14;94729.00;;;18.80
10598;BMP180;5346;48.766;8.674;2023-10-09T03:12:49;94727.00;;;18.60
10598;BMP180;5346;48.766;8.674;2023-10-09T03:15:28;94715.00;;;18.70
10598;BMP180;5346;48.766;8.674;2023-10-09T03:18:04;94719.00;;;18.70
10598;BMP180;5346;48.766;8.674;2023-10-09T03:20:38;94724.00;;;18.70
10598;BMP180;5346;48.766;8.674;2023-10-09T03:23:08;94719.00;;;18.90
10598;BMP180;5346;48.766;8.674;2023-10-09T03:25:46;94724.00;;;18.90
10598;BMP180;5346;48.766;8.674;2023-10-09T03:28:14;94715.00;;;18.90
10598;BMP180;5346;48.766;8.674;2023-10-09T03:30:50;94711.00;;;18.70
10598;BMP180;5346;48.766;8.674;2023-10-09T03:33:18;94713.00;;;18.60
10598;BMP180;5346;48.766;8.674;2023-10-09T03:35:53;94705.00;;;18.60
10598;BMP180;5346;48.766;8.674;2023-10-09T03:38:21;94701.00;;;18.80
10598;BMP180;5346;48.766;8.674;2023-10-09T03:40:55;94707.00;;;18.80
10598;BMP180;5346;48.766;8.674;2023-10-09T03:43:23;94699.00;;;18.90
10598;BMP180;5346;48.766;8.674;2023-10-09T03:46:00;94702.00;;;18.80
10598;BMP180;5346;48.766;8.674;2023-10-09T03:48:31;94700.00;;;18.90
10598;BMP180;5346;48.766;8.674;2023-10-09T03:51:10;94699.00;;;19.00
10598;BMP180;5346;48.766;8.674;2023-10-09T03:53:50;94700.00;;;19.00
10598;BMP180;5346;48.766;8.674;2023-10-09T03:56:26;94706.00;;;19.00
10598;BMP180;5346;48.766;8.674;2023-10-09T03:58:54;94714.00;;;18.90
10598;BMP180;5346;48.766;8.674;2023-10-09T04:01:28;94712.00;;;18.80
10598;BMP180;5346;48.766;8.674;2023-10-09T04:04:04;94710.00;;;18.90
10598;BMP180;5346;48.766;8.674;2023-10-09T04:06:42;94707.00;;;19.00
10598;BMP180;5346;48.766;8.674;2023-10-09T04:09:16;94716.00;;;18.80
10598;BMP180;5346;48.766;8.674;2023-10-09T04:11:51;94718.00;;;18.70
10598;BMP180;5346;48.766;8.674;2023-10-09T04:14:31;94716.00;;;18.80
10598;BMP180;5346;48.766;8.674;2023-10-09T04:17:02;94702.00;;;18.80
10598;BMP180;5346;48.766;8.674;2023-10-09T04:20:00;94703.00;;;18.60
10598;BMP180;5346;48.766;8.674;2023-10-09T04:22:43;94707.00;;;18.80
10598;BMP180;5346;48.766;8.674;2023-10-09T04:25:36;94703.00;;;18.60
10598;BMP180;5346;48.766;8.674;2023-10-09T04:28:17;94698.00;;;18.70
10598;BMP180;5346;48.766;8.674;2023-10-09T04:30:48;94708.00;;;18.90
10598;BMP180;5346;48.766;8.674;2023-10-09T04:33:29;94698.00;;;18.70
10598;BMP180;5346;48.766;8.674;2023-10-09T04:36:05;94701.00;;;18.80
10598;BMP180;5346;48.766;8.674;2023-10-09T04:38:55;94708.00;;;18.80
10598;BMP180;5346;48.766;8.674;2023-10-09T04:41:41;94709.00;;;18.80
10598;BMP180;5346;48.766;8.674;2023-10-09T04:44:30;94709.00;;;18.80
10598;BMP180;5346;48.766;8.674;2023-10-09T04:47:04;94712.00;;;19.00
10598;BMP180;5346;48.766;8.674;2023-10-09T04:49:44;94719.00;;;19.00
10598;BMP180;5346;48.766;8.674;2023-10-09T04:52:33;94724.00;;;19.00
10598;BMP180;5346;48.766;8.674;2023-10-09T04:55:01;94723.00;;;18.80
10598;BMP180;5346;48.766;8.674;2023-10-09T04:57:46;94729.00;;;18.80
10598;BMP180;5346;48.766;8.674;2023-10-09T05:00:18;94719.00;;;18.70
10598;BMP180;5346;48.766;8.674;2023-10-09T05:03:04;94724.00;;;18.90
10598;BMP180;5346;48.766;8.674;2023-10-09T05:05:44;94726.00;;;18.80
10598;BMP180;5346;48.766;8.674;2023-10-09T05:08:19;94723.00;;;18.80
10598;BMP180;5346;48.766;8.674;2023-10-09T05:10:50;94722.00;;;18.90
10598;BMP180;5346;48.766;8.674;2023-10-09T05:13:52;94722.00;;;18.90
10598;BMP180;5346;48.766;8.674;2023-10-09T05:16:50;94722.00;;;19.00
10598;BMP180;5346;48.766;8.674;2023-10-09T05:19:23;94733.00;;;19.00
10598;BMP180;5346;48.766;8.674;2023-10-09T05:22:23;94731.00;;;19.00
10598;BMP180;5346;48.766;8.674;2023-10-09T05:25:10;94728.00;;;18.90
10598;BMP180;5346;48.766;8.674;2023-10-09T05:27:46;94731.00;;;19.00
10598;BMP180;5346;48.766;8.674;2023-10-09T05:30:25;94734.00;;;18.90
10598;BMP180;5346;48.766;8.674;2023-10-09T05:33:02;94733.00;;;18.90
10598;BMP180;5346;48.766;8.674;2023-10-09T05:35:57;94733.00;;;18.80
10598;BMP180;5346;48.766;8.674;2023-10-09T05:38:48;94732.00;;;18.80
10598;BMP180;5346;48.766;8.674;2023-10-09T05:41:32;94729.00;;;18.80
10598;BMP180;5346;48.766;8.674;2023-10-09T05:44:19;94737.00;;;18.70
10598;BMP180;5346;48.766;8.674;2023-10-09T05:47:13;94740.00;;;18.80
10598;BMP180;5346;48.766;8.674;2023-10-09T05:50:01;94746.00;;;18.70
10598;BMP180;5346;48.766;8.674;2023-10-09T05:52:56;94743.00;;;18.60
10598;BMP180;5346;48.766;8.674;2023-10-09T05:55:40;94748.00;;;18.60
10598;BMP180;5346;48.766;8.674;2023-10-09T05:58:27;94756.00;;;18.80
10598;BMP180;5346;48.766;8.674;2023-10-09T06:01:21;94752.00;;;18.70
10598;BMP180;5346;48.766;8.674;2023-10-09T06:04:16;94761.00;;;18.70
10598;BMP180;5346;48.766;8.674;2023-10-09T06:07:07;94746.00;;;18.70
10598;BMP180;5346;48.766;8.674;2023-10-09T06:09:55;94757.00;;;18.80
10598;BMP180;5346;48.766;8.674;2023-10-09T06:12:32;94747.00;;;18.80
10598;BMP180;5346;48.766;8.674;2023-10-09T06:15:07;94758.00;;;18.90
10598;BMP180;5346;48.766;8.674;2023-10-09T06:18:07;94750.00;;;18.80
10598;BMP180;5346;48.766;8.674;2023-10-09T06:20:56;94748.00;;;18.70
10598;BMP180;5346;48.766;8.674;2023-10-09T06:24:07;94757.00;;;18.70
10598;BMP180;5346;48.766;8.674;2023-10-09T06:26:46;94756.00;;;18.60
10598;BMP180;5346;48.766;8.674;2023-10-09T06:29:32;94751.00;;;18.70
10598;BMP180;5346;48.766;8.674;2023-10-09T06:32:13;94753.00;;;18.60
10598;BMP180;5346;48.766;8.674;2023-10-09T06:34:58;94759.00;;;18.60
10598;BMP180;5346;48.766;8.674;2023-10-09T06:37:59;94758.00;;;18.80
10598;BMP180;5346;48.766;8.674;2023-10-09T06:40:39;94762.00;;;18.80
10598;BMP180;5346;48.766;8.674;2023-10-09T06:43:35;94756.00;;;18.70
10598;BMP180;5346;48.766;8.674;2023-10-09T06:46:04;94765.00;;;18.70
10598;BMP180;5346;48.766;8.674;2023-10-09T06:49:20;94762.00;;;18.80
10598;BMP180;5346;48.766;8.674;2023-10-09T06:52:09;94764.00;;;18.80
10598;BMP180;5346;48.766;8.674;2023-10-09T06:54:49;94768.00;;;18.80
10598;BMP180;5346;48.766;8.674;2023-10-09T06:57:24;94771.00;;;18.80
10598;BMP180;5346;48.766;8.674;2023-10-09T07:00:13;94767.00;;;19.00
10598;BMP180;5346;48.766;8.674;2023-10-09T07:03:12;94767.00;;;19.00
10598;BMP180;5346;48.766;8.674;2023-10-09T07:05:40;94767.00;;;19.10
10598;BMP180;5346;48.766;8.674;2023-10-09T07:08:33;94756.00;;;19.00
10598;BMP180;5346;48.766;8.674;2023-10-09T07:11:11;94763.00;;;19.10
10598;BMP180;5346;48.766;8.674;2023-10-09T07:14:22;94762.00;;;19.20
10598;BMP180;5346;48.766;8.674;2023-10-09T07:17:12;94766.00;;;19.20
10598;BMP180;5346;48.766;8.674;2023-10-09T07:20:10;94767.00;;;19.20
10598;BMP180;5346;48.766;8.674;2023-10-09T07:22:48;94765.00;;;19.10
10598;BMP180;5346;48.766;8.674;2023-10-09T07:25:25;94765.00;;;19.00
10598;BMP180;5346;48.766;8.674;2023-10-09T07:28:14;94769.00;;;19.10
10598;BMP180;5346;48.766;8.674;2023-10-09T07:31:20;94769.00;;;19.20
10598;BMP180;5346;48.766;8.674;2023-10-09T07:34:16;94766.00;;;19.10
10598;BMP180;5346;48.766;8.674;2023-10-09T07:37:06;94760.00;;;19.20
10598;BMP180;5346;48.766;8.674;2023-10-09T07:39:41;94765.00;;;19.20
10598;BMP180;5346;48.766;8.674;2023-10-09T07:42:17;94757.00;;;19.40
10598;BMP180;5346;48.766;8.674;2023-10-09T07:45:08;94758.00;;;19.40
10598;BMP180;5346;48.766;8.674;2023-10-09T07:47:59;94754.00;;;19.60
10598;BMP180;5346;48.766;8.674;2023-10-09T07:50:39;94760.00;;;19.50
10598;BMP180;5346;48.766;8.674;2023-10-09T07:53:23;94762.00;;;19.50
10598;BMP180;5346;48.766;8.674;2023-10-09T07:55:54;94765.00;;;19.50
10598;BMP180;5346;48.766;8.674;2023-10-09T07:58:37;94763.00;;;19.60
10598;BMP180;5346;48.766;8.674;2023-10-09T08:01:20;94761.00;;;19.50
10598;BMP180;5346;48.766;8.674;2023-10-09T08:04:11;94759.00;;;19.70
10598;BMP180;5346;48.766;8.674;2023-10-09T08:06:55;94760.00;;;19.80
10598;BMP180;5346;48.766;8.674;2023-10-09T08:09:45;94764.00;;;19.80
10598;BMP180;5346;48.766;8.674;2023-10-09T08:12:43;94765.00;;;19.90
10598;BMP180;5346;48.766;8.674;2023-10-09T08:15:18;94764.00;;;19.80
10598;BMP180;5346;48.766;8.674;2023-10-09T08:17:54;94773.00;;;20.00
10598;BMP180;5346;48.766;8.674;2023-10-09T08:20:28;94771.00;;;20.00
10598;BMP180;5346;48.766;8.674;2023-10-09T08:23:04;94776.00;;;20.10
10598;BMP180;5346;48.766;8.674;2023-10-09T08:26:02;94780.00;;;20.10
10598;BMP180;5346;48.766;8.674;2023-10-09T08:28:46;94774.00;;;20.30
10598;BMP180;5346;48.766;8.674;2023-10-09T08:31:48;94777.00;;;20.10
10598;BMP180;5346;48.766;8.674;2023-10-09T08:34:50;94784.00;;;19.90
10598;BMP180;5346;48.766;8.674;2023-10-09T08:37:40;94787.00;;;20.00
10598;BMP180;5346;48.766;8.674;2023-10-09T08:40:09;94785.00;;;19.80
10598;BMP180;5346;48.766;8.674;2023-10-09T08:42:53;94793.00;;;20.00
10598;BMP180;5346;48.766;8.674;2023-10-09T08:45:22;94792.00;;;20.00
10598;BMP180;5346;48.766;8.674;2023-10-09T08:48:01;94796.00;;;20.00
10598;BMP180;5346;48.766;8.674;2023-10-09T08:50:34;94788.00;;;19.80
10598;BMP180;5346;48.766;8.674;2023-10-09T08:53:10;94789.00;;;19.80
10598;BMP180;5346;48.766;8.674;2023-10-09T08:55:39;94794.00;;;20.00
10598;BMP180;5346;48.766;8.674;2023-10-09T08:58:08;94798.00;;;19.90
10598;BMP180;5346;48.766;8.674;2023-10-09T09:00:58;94805.00;;;19.70
10598;BMP180;5346;48.766;8.674;2023-10-09T09:03:42;94804.00;;;19.70
10598;BMP180;5346;48.766;8.674;2023-10-09T09:06:19;94813.00;;;19.90
10598;BMP180;5346;48.766;8.674;2023-10-09T09:08:55;94815.00;;;20.00
10598;BMP180;5346;48.766;8.674;2023-10-09T09:11:42;94809.00;;;20.10
10598;BMP180;5346;48.766;8.674;2023-10-09T09:14:36;94809.00;;;20.20
10598;BMP180;5346;48.766;8.674;2023-10-09T09:17:07;94809.00;;;20.00
10598;BMP180;5346;48.766;8.674;2023-10-09T09:19:52;94808.00;;;20.10
10598;BMP180;5346;48.766;8.674;2023-10-09T09:22:27;94810.00;;;19.90
10598;BMP180;5346;48.766;8.674;2023-10-09T09:25:02;94811.00;;;19.90
10598;BMP180;5346;48.766;8.674;2023-10-09T09:27:46;94816.00;;;20.00
10598;BMP180;5346;48.766;8.674;2023-10-09T09:30:28;94816.00;;;20.10
10598;BMP180;5346;48.766;8.674;2023-10-09T09:33:23;94810.00;;;20.20
10598;BMP180;5346;48.766;8.674;2023-10-09T09:36:17;94819.00;;;20.10
10598;BMP180;5346;48.766;8.674;2023-10-09T09:38:46;94824.00;;;20.30
10598;BMP180;5346;48.766;8.674;2023-10-09T09:41:25;94818.00;;;20.50
10598;BMP180;5346;48.766;8.674;2023-10-09T09:43:57;94816.00;;;20.80
10598;BMP180;5346;48.766;8.674;2023-10-09T09:46:35;94825.00;;;20.80
10598;BMP180;5346;48.766;8.674;2023-10-09T09:49:05;94818.00;;;20.80
10598;BMP180;5346;48.766;8.674;2023-10-09T09:51:48;94815.00;;;20.90
10598;BMP180;5346;48.766;8.674;2023-10-09T09:54:16;94826.00;;;21.00
10598;BMP180;5346;48.766;8.674;2023-10-09T09:56:55;94811.00;;;21.00
10598;BMP180;5346;48.766;8.674;2023-10-09T09:59:31;94817.00;;;21.20
10598;BMP180;5346;48.766;8.674;2023-10-09T10:02:03;94813.00;;;21.10
10598;BMP180;5346;48.766;8.674;2023-10-09T10:04:54;94820.00;;;21.20
10598;BMP180;5346;48.766;8.674;2023-10-09T10:07:32;94805.00;;;21.00
10598;BMP180;5346;48.766;8.674;2023-10-09T10:10:38;94802.00;;;21.30
10598;BMP180;5346;48.766;8.674;2023-10-09T10:13:07;94809.00;;;21.40
10598;BMP180;5346;48.766;8.674;2023-10-09T10:15:57;94813.00;;;21.30
10598;BMP180;5346;48.766;8.674;2023-10-09T10:18:32;94808.00;;;21.50
10598;BMP180;5346;48.766;8.674;2023-10-09T10:21:09;94820.00;;;21.40
10598;BMP180;5346;48.766;8.674;2023-10-09T10:23:52;94818.00;;;21.50
10598;BMP180;5346;48.766;8.674;2023-10-09T10:26:21;94810.00;;;21.90
10598;BMP180;5346;48.766;8.674;2023-10-09T10:32:07;94812.00;;;22.00
10598;BMP180;5346;48.766;8.674;2023-10-09T10:34:54;94806.00;;;22.10
10598;BMP180;5346;48.766;8.674;2023-10-09T10:37:38;94807.00;;;21.70
10598;BMP180;5346;48.766;8.674;2023-10-09T10:40:27;94805.00;;;21.60
10598;BMP180;5346;48.766;8.674;2023-10-09T10:43:19;94810.00;;;21.50
10598;BMP180;5346;48.766;8.674;2023-10-09T10:46:23;94805.00;;;21.20
10598;BMP180;5346;48.766;8.674;2023-10-09T10:49:07;94799.00;;;21.70
10598;BMP180;5346;48.766;8.674;2023-10-09T10:51:53;94801.00;;;21.80
10598;BMP180;5346;48.766;8.674;2023-10-09T10:54:49;94806.00;;;21.80
10598;BMP180;5346;48.766;8.674;2023-10-09T10:57:44;94796.00;;;21.70
10598;BMP180;5346;48.766;8.674;2023-10-09T11:00:33;94806.00;;;22.00
10598;BMP180;5346;48.766;8.674;2023-10-09T11:03:32;94808.00;;;21.50
10598;BMP180;5346;48.766;8.674;2023-10-09T11:06:12;94808.00;;;21.70
10598;BMP180;5346;48.766;8.674;2023-10-09T11:08:50;94810.00;;;22.00
10598;BMP180;5346;48.766;8.674;2023-10-09T11:11:32;94807.00;;;21.60
10598;BMP180;5346;48.766;8.674;2023-10-09T11:14:15;94804.00;;;21.60
10598;BMP180;5346;48.766;8.674;2023-10-09T11:16:51;94809.00;;;21.60
10598;BMP180;5346;48.766;8.674;2023-10-09T11:19:26;94816.00;;;21.70
10598;BMP180;5346;48.766;8.674;2023-10-09T11:22:03;94818.00;;;21.40
10598;BMP180;5346;48.766;8.674;2023-10-09T11:24:52;94815.00;;;21.30
10598;BMP180;5346;48.766;8.674;2023-10-09T11:27:46;94820.00;;;21.20
10598;BMP180;5346;48.766;8.674;2023-10-09T11:30:18;94828.00;;;21.10
10598;BMP180;5346;48.766;8.674;2023-10-09T11:33:07;94822.00;;;21.20
10598;BMP180;5346;48.766;8.674;2023-10-09T11:35:56;94824.00;;;21.00
10598;BMP180;5346;48.766;8.674;2023-10-09T11:38:39;94823.00;;;21.00
10598;BMP180;5346;48.766;8.674;2023-10-09T11:41:14;94817.00;;;21.20
10598;BMP180;5346;48.766;8.674;2023-10-09T11:43:58;94808.00;;;20.90
10598;BMP180;5346;48.766;8.674;2023-10-09T11:46:32;94827.00;;;20.70
10598;BMP180;5346;48.766;8.674;2023-10-09T11:49:26;94804.00;;;20.90
10598;BMP180;5346;48.766;8.674;2023-10-09T11:52:16;94804.00;;;20.80
10598;BMP180;5346;48.766;8.674;2023-10-09T11:55:07;94803.00;;;20.80
10598;BMP180;5346;48.766;8.674;2023-10-09T11:57:41;94793.00;;;20.80
10598;BMP180;5346;48.766;8.674;2023-10-09T12:00:10;94789.00;;;20.60
10598;BMP180;5346;48.766;8.674;2023-10-09T12:03:07;94786.00;;;20.80
10598;BMP180;5346;48.766;8.674;2023-10-09T12:05:48;94781.00;;;21.20
10598;BMP180;5346;48.766;8.674;2023-10-09T12:08:24;94776.00;;;21.30
10598;BMP180;5346;48.766;8.674;2023-10-09T12:11:01;94765.00;;;21.40
10598;BMP180;5346;48.766;8.674;2023-10-09T12:13:39;94763.00;;;21.40
10598;BMP180;5346;48.766;8.674;2023-10-09T12:16:16;94750.00;;;21.60
10598;BMP180;5346;48.766;8.674;2023-10-09T12:18:44;94746.00;;;21.60
10598;BMP180;5346;48.766;8.674;2023-10-09T12:21:31;94739.00;;;21.90
10598;BMP180;5346;48.766;8.674;2023-10-09T12:23:58;94739.00;;;22.00
10598;BMP180;5346;48.766;8.674;2023-10-09T12:26:39;94736.00;;;22.30
10598;BMP180;5346;48.766;8.674;2023-10-09T12:29:12;94737.00;;;22.40
10598;BMP180;5346;48.766;8.674;2023-10-09T12:31:46;94730.00;;;22.50
10598;BMP180;5346;48.766;8.674;2023-10-09T12:34:21;94721.00;;;22.80
10598;BMP180;5346;48.766;8.674;2023-10-09T12:36:50;94715.00;;;22.80
10598;BMP180;5346;48.766;8.674;2023-10-09T12:39:24;94715.00;;;22.90
10598;BMP180;5346;48.766;8.674;2023-10-09T12:41:55;94710.00;;;23.20
10598;BMP180;5346;48.766;8.674;2023-10-09T12:44:36;94708.00;;;23.60
10598;BMP180;5346;48.766;8.674;2023-10-09T12:47:09;94712.00;;;23.70
10598;BMP180;5346;48.766;8.674;2023-10-09T12:49:47;94726.00;;;23.50
10598;BMP180;5346;48.766;8.674;2023-10-09T12:52:16;94723.00;;;23.00
10598;BMP180;5346;48.766;8.674;2023-10-09T12:54:45;94690.00;;;22.80
10598;BMP180;5346;48.766;8.674;2023-10-09T12:57:22;94734.00;;;23.10
10598;BMP180;5346;48.766;8.674;2023-10-09T12:59:53;94728.00;;;22.90
10598;BMP180;5346;48.766;8.674;2023-10-09T13:02:28;94730.00;;;22.80
10598;BMP180;5346;48.766;8.674;2023-10-09T13:05:03;94711.00;;;23.40
10598;BMP180;5346;48.766;8.674;2023-10-09T13:07:43;94707.00;;;24.50
10598;BMP180;5346;48.766;8.674;2023-10-09T13:10:19;94705.00;;;26.80
10598;BMP180;5346;48.766;8.674;2023-10-09T13:12:56;94712.00;;;27.10
10598;BMP180;5346;48.766;8.674;2023-10-09T13:15:33;94722.00;;;26.90
10598;BMP180;5346;48.766;8.674;2023-10-09T13:18:18;94734.00;;;26.40
10598;BMP180;5346;48.766;8.674;2023-10-09T13:21:02;94740.00;;;24.90
10598;BMP180;5346;48.766;8.674;2023-10-09T13:23:37;94745.00;;;23.80
10598;BMP180;5346;48.766;8.674;2023-10-09T13:26:21;94736.00;;;24.10
10598;BMP180;5346;48.766;8.674;2023-10-09T13:29:07;94744.00;;;23.50
10598;BMP180;5346;48.766;8.674;2023-10-09T13:31:45;94741.00;;;23.50
10598;BMP180;5346;48.766;8.674;2023-10-09T13:34:18;94740.00;;;23.30
10598;BMP180;5346;48.766;8.674;2023-10-09T13:36:55;94728.00;;;23.50
10598;BMP180;5346;48.766;8.674;2023-10-09T13:39:26;94724.00;;;24.20
10598;BMP180;5346;48.766;8.674;2023-10-09T13:42:00;94734.00;;;23.40
10598;BMP180;5346;48.766;8.674;2023-10-09T13:44:42;94728.00;;;23.30
10598;BMP180;5346;48.766;8.674;2023-10-09T13:47:10;94735.00;;;23.50
10598;BMP180;5346;48.766;8.674;2023-10-09T13:49:55;94714.00;;;24.10
10598;BMP180;5346;48.766;8.674;2023-10-09T13:52:28;94717.00;;;24.00
10598;BMP180;5346;48.766;8.674;2023-10-09T13:55:06;94710.00;;;24.40
10598;BMP180;5346;48.766;8.674;2023-10-09T13:57:55;94721.00;;;24.30
10598;BMP180;5346;48.766;8.674;2023-10-09T14:00:25;94719.00;;;24.00
10598;BMP180;5346;48.766;8.674;2023-10-09T14:03:24;94715.00;;;23.60
10598;BMP180;5346;48.766;8.674;2023-10-09T14:05:54;94710.00;;;23.60
10598;BMP180;5346;48.766;8.674;2023-10-09T14:08:44;94712.00;;;23.80
10598;BMP180;5346;48.766;8.674;2023-10-09T14:11:20;94712.00;;;23.50
10598;BMP180;5346;48.766;8.674;2023-10-09T14:13:57;94697.00;;;23.60
10598;BMP180;5346;48.766;8.674;2023-10-09T14:16:40;94700.00;;;23.50
10598;BMP180;5346;48.766;8.674;2023-10-09T14:19:19;94689.00;;;23.50
10598;BMP180;5346;48.766;8.674;2023-10-09T14:21:50;94688.00;;;23.40
10598;BMP180;5346;48.766;8.674;2023-10-09T14:24:25;94691.00;;;23.50
10598;BMP180;5346;48.766;8.674;2023-10-09T14:27:02;94692.00;;;23.60
10598;BMP180;5346;48.766;8.674;2023-10-09T14:29:40;94695.00;;;24.00
10598;BMP180;5346;48.766;8.674;2023-10-09T14:32:17;94696.00;;;23.90
10598;BMP180;5346;48.766;8.674;2023-10-09T14:34:51;94697.00;;;23.90
10598;BMP180;5346;48.766;8.674;2023-10-09T14:37:21;94692.00;;;24.20
10598;BMP180;5346;48.766;8.674;2023-10-09T14:39:56;94699.00;;;24.10
10598;BMP180;5346;48.766;8.674;2023-10-09T14:42:24;94703.00;;;24.30
10598;BMP180;5346;48.766;8.674;2023-10-09T14:45:03;94693.00;;;24.50
10598;BMP180;5346;48.766;8.674;2023-10-09T14:47:42;94695.00;;;24.90
10598;BMP180;5346;48.766;8.674;2023-10-09T14:50:23;94694.00;;;24.60
10598;BMP180;5346;48.766;8.674;2023-10-09T14:52:57;94691.00;;;24.10
10598;BMP180;5346;48.766;8.674;2023-10-09T14:55:34;94698.00;;;23.90
10598;BMP180;5346;48.766;8.674;2023-10-09T14:58:09;94692.00;;;24.10
10598;BMP180;5346;48.766;8.674;2023-10-09T15:00:46;94705.00;;;23.80
10598;BMP180;5346;48.766;8.674;2023-10-09T15:03:18;94698.00;;;24.00
10598;BMP180;5346;48.766;8.674;2023-10-09T15:06:01;94699.00;;;24.00
10598;BMP180;5346;48.766;8.674;2023-10-09T15:08:31;94711.00;;;23.90
10598;BMP180;5346;48.766;8.674;2023-10-09T15:11:11;94706.00;;;24.20
10598;BMP180;5346;48.766;8.674;2023-10-09T15:13:39;94710.00;;;23.80
10598;BMP180;5346;48.766;8.674;2023-10-09T15:16:13;94719.00;;;23.80
10598;BMP180;5346;48.766;8.674;2023-10-09T15:18:49;94709.00;;;23.40
10598;BMP180;5346;48.766;8.674;2023-10-09T15:21:26;94714.00;;;23.30
10598;BMP180;5346;48.766;8.674;2023-10-09T15:24:01;94700.00;;;23.50
10598;BMP180;5346;48.766;8.674;2023-10-09T15:26:38;94706.00;;;23.40
10598;BMP180;5346;48.766;8.674;2023-10-09T15:29:14;94709.00;;;23.20
10598;BMP180;5346;48.766;8.674;2023-10-09T15:31:44;94703.00;;;23.00
10598;BMP180;5346;48.766;8.674;2023-10-09T15:34:20;94714.00;;;22.70
10598;BMP180;5346;48.766;8.674;2023-10-09T15:36:49;94712.00;;;22.60
10598;BMP180;5346;48.766;8.674;2023-10-09T15:39:25;94711.00;;;22.20
10598;BMP180;5346;48.766;8.674;2023-10-09T15:41:52;94701.00;;;22.20